createdAt,value
2019-01-21T00:00:22.050Z,92.58
2019-01-21T00:02:50.465Z,92.81
2019-01-21T00:05:18.773Z,93.09
2019-01-21T00:07:47.243Z,93.14
2019-01-21T00:10:15.566Z,93.22
2019-01-21T00:12:43.858Z,93.04
2019-01-21T00:15:12.464Z,92.28
2019-01-21T00:17:40.937Z,91.76
2019-01-21T00:20:09.299Z,91.59
2019-01-21T00:22:37.643Z,91.89
2019-01-21T00:25:06.912Z,91.90
2019-01-21T00:27:35.244Z,91.96
2019-01-21T00:30:04.279Z,92.17
2019-01-21T00:32:32.732Z,92.62
2019-01-21T00:35:01.122Z,92.58
2019-01-21T00:37:29.391Z,92.66
2019-01-21T00:39:57.705Z,92.22
2019-01-21T00:42:26.200Z,91.74
2019-01-21T00:44:54.474Z,91.89
2019-01-21T00:47:29.588Z,91.93
2019-01-21T00:49:52.904Z,91.93
2019-01-21T00:52:21.190Z,92.53
2019-01-21T00:54:51.007Z,92.53
2019-01-21T00:57:19.604Z,92.64
2019-01-21T00:59:47.947Z,92.69
2019-01-21T01:02:16.257Z,92.72
2019-01-21T01:04:44.672Z,92.90
2019-01-21T01:07:12.945Z,92.59
2019-01-21T01:09:41.223Z,92.46
2019-01-21T01:12:09.523Z,92.33
2019-01-21T01:14:37.872Z,92.52
2019-01-21T01:17:06.180Z,92.15
2019-01-21T01:19:34.568Z,91.94
2019-01-21T01:22:02.874Z,91.89
2019-01-21T01:24:31.211Z,91.82
2019-01-21T01:26:59.587Z,91.97
2019-01-21T01:29:27.865Z,91.97
2019-01-21T01:31:56.184Z,92.04
2019-01-21T01:34:24.454Z,92.02
2019-01-21T01:36:52.837Z,91.94
2019-01-21T01:39:21.179Z,91.92
2019-01-21T01:41:49.490Z,91.41
2019-01-21T01:44:17.791Z,91.12
2019-01-21T01:46:46.404Z,91.28
2019-01-21T01:49:14.731Z,90.86
2019-01-21T01:51:45.351Z,90.70
2019-01-21T01:54:15.353Z,91.12
2019-01-21T01:56:43.629Z,90.21
2019-01-21T01:59:12.185Z,89.76
2019-01-21T02:01:40.556Z,89.86
2019-01-21T02:04:08.981Z,89.75
2019-01-21T02:06:37.382Z,89.96
2019-01-21T02:09:07.188Z,90.33
2019-01-21T02:11:35.914Z,90.93
2019-01-21T02:14:04.183Z,91.03
2019-01-21T02:16:32.490Z,91.28
2019-01-21T02:19:00.836Z,91.64
2019-01-21T02:21:29.262Z,91.65
2019-01-21T02:24:00.629Z,91.79
2019-01-21T02:26:29.070Z,91.64
2019-01-21T02:29:06.306Z,91.38
2019-01-21T02:31:52.591Z,91.60
2019-01-21T02:34:30.091Z,91.40
2019-01-21T02:37:23.685Z,91.16
2019-01-21T02:39:58.172Z,91.30
2019-01-21T02:42:32.618Z,91.65
2019-01-21T02:45:07.094Z,91.55
2019-01-21T02:47:41.402Z,91.38
2019-01-21T02:50:28.230Z,92.18
2019-01-21T02:53:02.467Z,92.16
2019-01-21T02:55:53.384Z,91.85
2019-01-21T02:58:41.233Z,91.71
2019-01-21T03:01:27.712Z,91.82
2019-01-21T03:04:33.701Z,92.53
2019-01-21T03:07:05.323Z,93.09
2019-01-21T03:09:45.715Z,92.91
2019-01-21T03:12:46.532Z,92.87
2019-01-21T03:15:40.525Z,92.21
2019-01-21T03:18:43.678Z,91.65
2019-01-21T03:21:32.745Z,91.51
2019-01-21T03:24:25.226Z,91.24
2019-01-21T03:27:05.666Z,91.07
2019-01-21T03:29:49.298Z,91.10
2019-01-21T03:32:42.037Z,91.32
2019-01-21T03:35:46.713Z,91.15
2019-01-21T03:38:37.548Z,91.04
2019-01-21T03:41:13.556Z,91.25
2019-01-21T03:44:04.285Z,91.10
2019-01-21T03:46:41.802Z,90.93
2019-01-21T03:49:16.577Z,91.05
2019-01-21T03:52:05.947Z,90.99
2019-01-21T03:54:34.455Z,91.29
2019-01-21T03:57:06.126Z,91.12
2019-01-21T04:00:01.516Z,91.13
2019-01-21T04:03:01.490Z,91.19
2019-01-21T04:05:35.710Z,91.16
2019-01-21T04:08:12.826Z,91.73
2019-01-21T04:10:50.126Z,91.69
2019-01-21T04:13:33.714Z,91.77
2019-01-21T04:16:05.255Z,91.73
2019-01-21T04:18:46.012Z,91.61
2019-01-21T04:21:54.855Z,91.58
2019-01-21T04:24:38.530Z,92.13
2019-01-21T04:27:26.158Z,92.22
2019-01-21T04:30:19.113Z,91.79
2019-01-21T04:33:19.412Z,91.54
2019-01-21T04:36:05.603Z,92.05
2019-01-21T04:38:42.988Z,91.84
2019-01-21T04:41:18.651Z,91.58
2019-01-21T04:43:50.312Z,91.95
2019-01-21T04:46:21.842Z,92.36
2019-01-21T04:49:04.787Z,92.28
2019-01-21T04:51:48.024Z,92.21
2019-01-21T04:54:25.553Z,91.71
2019-01-21T04:57:18.048Z,91.56
2019-01-21T05:00:04.499Z,91.76
2019-01-21T05:03:10.296Z,91.52
2019-01-21T05:05:42.030Z,91.57
2019-01-21T05:08:29.989Z,92.30
2019-01-21T05:11:13.338Z,91.98
2019-01-21T05:13:44.969Z,91.65
2019-01-21T05:16:28.341Z,91.25
2019-01-21T05:19:08.672Z,91.63
2019-01-21T05:21:55.080Z,91.14
2019-01-21T05:24:44.703Z,90.70
2019-01-21T05:27:19.237Z,90.49
2019-01-21T05:29:59.829Z,90.40
2019-01-21T05:32:37.064Z,90.37
2019-01-21T05:35:29.763Z,90.50
2019-01-21T05:38:13.390Z,90.28
2019-01-21T05:40:48.421Z,90.42
2019-01-21T05:43:36.296Z,91.14
2019-01-21T05:46:30.443Z,91.62
2019-01-21T05:49:28.403Z,91.53
2019-01-21T05:52:15.330Z,91.49
2019-01-21T05:55:04.652Z,91.45
2019-01-21T05:57:57.085Z,91.09
2019-01-21T06:00:28.692Z,90.83
2019-01-21T06:03:08.936Z,90.75
2019-01-21T06:05:52.475Z,90.78
2019-01-21T06:08:58.344Z,90.49
2019-01-21T06:11:46.395Z,90.46
2019-01-21T06:14:38.778Z,90.70
2019-01-21T06:17:47.640Z,90.58
2019-01-21T06:20:28.049Z,90.62
2019-01-21T06:23:11.633Z,91.17
2019-01-21T06:25:49.175Z,91.19
2019-01-21T06:28:35.635Z,91.30
2019-01-21T06:31:32.016Z,91.17
2019-01-21T06:34:33.693Z,90.46
2019-01-21T06:37:13.845Z,90.46
2019-01-21T06:40:34.683Z,90.13
2019-01-21T06:43:06.214Z,90.40
2019-01-21T06:45:52.912Z,90.53
2019-01-21T06:48:36.227Z,90.48
2019-01-21T06:51:26.054Z,90.64
2019-01-21T06:54:06.325Z,90.67
2019-01-21T06:56:57.242Z,90.45
2019-01-21T07:00:05.935Z,90.39
2019-01-21T07:02:55.228Z,90.54
2019-01-21T07:05:39.109Z,90.51
2019-01-21T07:08:43.680Z,90.54
2019-01-21T07:11:49.422Z,90.31
2019-01-21T07:14:32.989Z,90.15
2019-01-21T07:17:10.814Z,90.42
2019-01-21T07:19:46.313Z,89.66
2019-01-21T07:22:51.635Z,89.72
2019-01-21T07:26:00.261Z,90.19
2019-01-21T07:28:43.862Z,89.77
2019-01-21T07:31:30.155Z,89.36
2019-01-21T07:34:06.897Z,90.59
2019-01-21T07:36:55.031Z,90.87
2019-01-21T07:39:42.907Z,90.91
2019-01-21T07:42:23.189Z,90.90
2019-01-21T07:44:57.725Z,90.53
2019-01-21T07:47:45.637Z,90.54
2019-01-21T07:50:35.355Z,90.62
2019-01-21T07:53:12.637Z,90.35
2019-01-21T07:56:02.094Z,89.73
2019-01-21T07:58:36.448Z,89.39
2019-01-21T08:01:28.982Z,88.93
2019-01-21T08:04:33.413Z,89.40
2019-01-21T08:07:20.080Z,89.15
2019-01-21T08:10:00.240Z,88.62
2019-01-21T08:12:52.806Z,88.42
2019-01-21T08:15:27.310Z,88.08
2019-01-21T08:18:15.546Z,88.17
2019-01-21T08:20:56.158Z,87.11
2019-01-21T08:23:51.442Z,85.35
2019-01-21T08:26:25.754Z,84.56
2019-01-21T08:29:03.414Z,85.05
2019-01-21T08:31:35.058Z,82.95
2019-01-21T08:34:12.159Z,82.79
2019-01-21T08:36:46.244Z,82.16
2019-01-21T08:39:32.641Z,81.73
2019-01-21T08:42:26.087Z,81.32
2019-01-21T08:45:15.684Z,81.17
2019-01-21T08:47:56.095Z,82.89
2019-01-21T08:50:51.592Z,83.14
2019-01-21T08:53:23.128Z,84.17
2019-01-21T08:55:54.718Z,85.19
2019-01-21T08:59:03.198Z,86.33
2019-01-21T09:01:57.277Z,86.44
2019-01-21T09:05:03.407Z,86.45
2019-01-21T09:07:51.526Z,85.46
2019-01-21T09:10:39.771Z,83.52
2019-01-21T09:13:19.984Z,82.38
2019-01-21T09:16:02.908Z,82.36
2019-01-21T09:18:34.462Z,83.74
2019-01-21T09:21:24.204Z,83.59
2019-01-21T09:23:58.503Z,83.72
2019-01-21T09:26:56.276Z,82.62
2019-01-21T09:29:27.854Z,83.14
2019-01-21T09:32:15.776Z,81.36
2019-01-21T09:35:08.061Z,81.61
2019-01-21T09:37:48.102Z,80.82
2019-01-21T09:40:22.383Z,82.00
2019-01-21T09:43:10.319Z,82.68
2019-01-21T09:46:05.744Z,82.14
2019-01-21T09:48:33.111Z,82.30
2019-01-21T09:51:04.695Z,81.54
2019-01-21T09:53:33.182Z,81.59
2019-01-21T09:56:01.536Z,82.26
2019-01-21T09:58:29.879Z,81.58
2019-01-21T10:00:58.180Z,81.08
2019-01-21T10:03:26.461Z,79.90
2019-01-21T10:05:58.064Z,80.09
2019-01-21T10:08:29.649Z,79.72
2019-01-21T10:11:04.519Z,78.47
2019-01-21T10:13:38.733Z,78.66
2019-01-21T10:16:28.378Z,78.22
2019-01-21T10:19:15.942Z,76.49
2019-01-21T10:21:56.275Z,76.98
2019-01-21T10:24:45.651Z,78.59
2019-01-21T10:27:17.232Z,77.45
2019-01-21T10:30:14.271Z,78.94
2019-01-21T10:33:02.483Z,79.11
2019-01-21T10:35:50.525Z,80.04
2019-01-21T10:38:37.869Z,81.16
2019-01-21T10:41:12.057Z,82.06
2019-01-21T10:43:52.181Z,82.11
2019-01-21T10:46:57.069Z,82.98
2019-01-21T10:49:59.222Z,83.06
2019-01-21T10:53:02.139Z,83.08
2019-01-21T10:55:49.821Z,84.36
2019-01-21T10:58:30.236Z,83.69
2019-01-21T11:01:27.252Z,82.07
2019-01-21T11:04:13.543Z,81.24
2019-01-21T11:06:50.967Z,82.27
2019-01-21T11:09:28.317Z,81.06
2019-01-21T11:12:11.228Z,81.46
2019-01-21T11:14:42.806Z,81.22
2019-01-21T11:17:26.089Z,81.18
2019-01-21T11:20:16.808Z,80.99
2019-01-21T11:22:57.376Z,80.07
2019-01-21T11:25:48.208Z,81.19
2019-01-21T11:28:31.747Z,81.04
2019-01-21T11:31:15.128Z,80.51
2019-01-21T11:34:04.694Z,80.05
2019-01-21T11:36:39.058Z,80.14
2019-01-21T11:39:33.151Z,81.39
2019-01-21T11:42:25.634Z,80.64
2019-01-21T11:45:21.184Z,78.53
2019-01-21T11:48:04.886Z,78.31
2019-01-21T11:50:48.186Z,77.68
2019-01-21T11:53:19.830Z,78.99
2019-01-21T11:55:51.464Z,78.44
2019-01-21T11:58:51.602Z,77.73
2019-01-21T12:01:34.942Z,77.76
2019-01-21T12:04:30.402Z,76.56
2019-01-21T12:07:13.622Z,76.20
2019-01-21T12:10:01.591Z,74.40
2019-01-21T12:12:36.111Z,73.68
2019-01-21T12:15:19.518Z,71.37
2019-01-21T12:18:09.070Z,71.54
2019-01-21T12:20:49.365Z,72.34
2019-01-21T12:23:36.051Z,71.59
2019-01-21T12:26:22.387Z,70.18
2019-01-21T12:29:08.679Z,70.40
2019-01-21T12:31:49.227Z,70.02
2019-01-21T12:34:41.820Z,67.86
2019-01-21T12:37:21.991Z,67.98
2019-01-21T12:39:53.535Z,67.37
2019-01-21T12:42:25.199Z,65.84
2019-01-21T12:45:29.718Z,65.34
2019-01-21T12:48:10.033Z,66.85
2019-01-21T12:51:09.902Z,67.03
2019-01-21T12:53:50.322Z,64.93
2019-01-21T12:56:42.921Z,65.19
2019-01-21T12:59:17.463Z,63.78
2019-01-21T13:01:55.006Z,63.71
2019-01-21T13:04:29.495Z,62.81
2019-01-21T13:07:06.846Z,62.63
2019-01-21T13:09:41.002Z,61.93
2019-01-21T13:12:28.977Z,63.08
2019-01-21T13:15:29.012Z,63.76
2019-01-21T13:18:00.708Z,61.81
2019-01-21T13:20:50.278Z,63.60
2019-01-21T13:23:21.936Z,64.42
2019-01-21T13:26:02.172Z,63.97
2019-01-21T13:28:48.724Z,63.44
2019-01-21T13:31:38.074Z,62.13
2019-01-21T13:34:44.270Z,63.07
2019-01-21T13:37:44.103Z,63.58
2019-01-21T13:40:39.189Z,63.45
2019-01-21T13:43:39.173Z,64.14
2019-01-21T13:46:19.832Z,63.19
2019-01-21T13:48:51.440Z,62.42
2019-01-21T13:51:35.075Z,62.08
2019-01-21T13:54:06.733Z,63.02
2019-01-21T13:57:00.847Z,63.34
2019-01-21T13:59:41.559Z,63.05
2019-01-21T14:02:15.949Z,62.42
2019-01-21T14:05:02.775Z,61.78
2019-01-21T14:07:37.139Z,63.69
2019-01-21T14:10:14.575Z,66.10
2019-01-21T14:12:54.736Z,64.87
2019-01-21T14:15:31.991Z,64.28
2019-01-21T14:18:18.425Z,63.38
2019-01-21T14:20:50.030Z,63.51
2019-01-21T14:23:33.711Z,63.99
2019-01-21T14:26:16.959Z,63.96
2019-01-21T14:28:54.222Z,63.52
2019-01-21T14:31:31.613Z,63.96
2019-01-21T14:34:24.327Z,64.97
2019-01-21T14:37:05.043Z,64.46
2019-01-21T14:39:42.292Z,63.66
2019-01-21T14:42:13.951Z,64.10
2019-01-21T14:44:51.221Z,64.77
2019-01-21T14:47:32.397Z,65.18
2019-01-21T14:50:12.654Z,65.28
2019-01-21T14:53:03.596Z,65.64
2019-01-21T14:55:52.177Z,65.52
2019-01-21T14:58:26.887Z,65.97
2019-01-21T15:01:16.087Z,69.00
2019-01-21T15:04:04.259Z,69.77
2019-01-21T15:06:53.608Z,68.87
2019-01-21T15:09:40.070Z,68.40
2019-01-21T15:12:20.664Z,70.49
2019-01-21T15:15:16.634Z,70.16
2019-01-21T15:18:00.053Z,71.58
2019-01-21T15:20:31.677Z,72.61
2019-01-21T15:23:21.269Z,72.50
2019-01-21T15:25:53.405Z,72.37
2019-01-21T15:28:43.854Z,73.73
2019-01-21T15:31:15.515Z,73.31
2019-01-21T15:33:56.583Z,74.26
2019-01-21T15:36:47.321Z,74.92
2019-01-21T15:39:31.890Z,74.71
2019-01-21T15:42:27.859Z,74.51
2019-01-21T15:45:28.060Z,74.46
2019-01-21T15:48:16.245Z,74.32
2019-01-21T15:50:53.529Z,74.95
2019-01-21T15:53:25.238Z,75.03
2019-01-21T15:56:10.834Z,75.05
2019-01-21T15:58:53.071Z,74.95
2019-01-21T16:01:33.501Z,74.41
2019-01-21T16:04:05.017Z,74.83
2019-01-21T16:06:52.654Z,75.53
2019-01-21T16:09:30.564Z,74.81
2019-01-21T16:12:14.078Z,74.79
2019-01-21T16:14:45.919Z,75.08
2019-01-21T16:17:17.661Z,76.37
2019-01-21T16:19:46.019Z,76.85
2019-01-21T16:22:20.445Z,76.60
2019-01-21T16:25:01.375Z,76.27
2019-01-21T16:28:04.751Z,76.33
2019-01-21T16:30:37.958Z,76.70
2019-01-21T16:33:43.820Z,76.30
2019-01-21T16:36:30.870Z,76.24
2019-01-21T16:39:04.656Z,77.14
2019-01-21T16:41:39.213Z,77.48
2019-01-21T16:44:07.696Z,77.47
2019-01-21T16:46:36.881Z,77.27
2019-01-21T16:49:05.350Z,77.71
2019-01-21T16:51:33.618Z,77.71
2019-01-21T16:54:01.934Z,78.06
2019-01-21T16:56:30.374Z,77.25
2019-01-21T16:59:04.354Z,77.51
2019-01-21T17:01:33.354Z,77.24
2019-01-21T17:04:08.311Z,77.65
2019-01-21T17:06:39.608Z,78.14
2019-01-21T17:09:10.159Z,77.67
2019-01-21T17:11:38.578Z,77.79
2019-01-21T17:14:08.573Z,77.75
2019-01-21T17:16:36.858Z,78.29
2019-01-21T17:19:05.429Z,77.78
2019-01-21T17:24:04.200Z,77.79
2019-01-21T17:26:32.654Z,78.12
2019-01-21T17:29:02.331Z,77.67
2019-01-21T17:31:31.017Z,78.14
2019-01-21T17:33:59.696Z,78.17
2019-01-21T17:36:28.877Z,78.32
2019-01-21T17:38:57.331Z,77.34
2019-01-21T17:41:26.681Z,77.83
2019-01-21T17:43:55.035Z,78.06
2019-01-21T17:46:25.109Z,77.91
2019-01-21T17:48:53.527Z,77.92
2019-01-21T17:51:21.877Z,77.57
2019-01-21T17:53:51.443Z,77.36
2019-01-21T17:56:20.096Z,77.93
2019-01-21T17:58:49.225Z,77.87
2019-01-21T18:01:19.392Z,77.26
2019-01-21T18:03:49.842Z,78.10
2019-01-21T18:06:19.815Z,77.86
2019-01-21T18:08:47.918Z,77.81
2019-01-21T18:11:16.389Z,78.18
2019-01-21T18:13:44.825Z,77.59
2019-01-21T18:16:14.925Z,77.50
2019-01-21T18:18:43.686Z,77.79
2019-01-21T18:21:12.175Z,77.64
2019-01-21T18:23:41.068Z,77.48
2019-01-21T18:26:09.557Z,77.86
2019-01-21T18:28:38.198Z,77.99
2019-01-21T18:31:09.827Z,77.99
2019-01-21T18:33:38.845Z,77.25
2019-01-21T18:36:08.067Z,77.46
2019-01-21T18:38:39.542Z,77.50
2019-01-21T18:41:07.992Z,76.61
2019-01-21T18:43:36.336Z,76.84
2019-01-21T18:46:06.048Z,77.23
2019-01-21T18:48:34.313Z,76.46
2019-01-21T18:51:02.749Z,77.33
2019-01-21T18:53:35.245Z,76.80
2019-01-21T18:56:06.058Z,77.26
2019-01-21T18:58:34.368Z,76.76
2019-01-21T19:01:03.345Z,76.95
2019-01-21T19:03:37.079Z,77.92
2019-01-21T19:06:06.988Z,76.17
2019-01-21T19:08:35.699Z,75.80
2019-01-21T19:11:04.442Z,76.52
2019-01-21T19:13:32.892Z,76.56
2019-01-21T19:16:01.244Z,76.87
2019-01-21T19:18:29.660Z,76.01
2019-01-21T19:20:58.035Z,76.06
2019-01-21T19:23:29.402Z,76.45
2019-01-21T19:25:59.712Z,75.75
2019-01-21T19:28:28.093Z,76.12
2019-01-21T19:30:56.730Z,75.85
2019-01-21T19:33:25.060Z,76.36
2019-01-21T19:35:53.409Z,76.10
2019-01-21T19:38:22.642Z,76.16
2019-01-21T19:40:51.074Z,75.86
2019-01-21T19:43:19.466Z,75.28
2019-01-21T19:45:47.757Z,75.25
2019-01-21T19:48:16.034Z,74.88
2019-01-21T19:50:44.339Z,75.56
2019-01-21T19:53:13.042Z,75.39
2019-01-21T19:56:02.319Z,74.84
2019-01-21T19:58:31.145Z,75.40
2019-01-21T20:00:59.549Z,75.10
2019-01-21T20:03:28.234Z,75.70
2019-01-21T20:05:56.502Z,75.20
2019-01-21T20:08:26.379Z,75.89
2019-01-21T20:10:55.017Z,75.39
2019-01-21T20:13:25.656Z,75.84
2019-01-21T20:15:59.405Z,75.27
2019-01-21T20:18:29.928Z,75.87
2019-01-21T20:20:58.314Z,75.14
2019-01-21T20:23:26.853Z,74.71
2019-01-21T20:25:55.228Z,75.06
2019-01-21T20:28:23.749Z,74.46
2019-01-21T20:30:52.119Z,74.93
2019-01-21T20:33:20.389Z,74.65
2019-01-21T20:35:48.684Z,74.36
2019-01-21T20:38:17.039Z,74.59
2019-01-21T20:40:45.456Z,74.36
2019-01-21T20:43:13.719Z,75.36
2019-01-21T20:45:42.059Z,74.60
2019-01-21T20:48:10.408Z,75.28
2019-01-21T20:50:38.776Z,75.45
2019-01-21T20:53:08.198Z,75.06
2019-01-21T20:55:36.599Z,75.06
2019-01-21T20:58:05.108Z,76.01
2019-01-21T21:00:33.567Z,75.66
2019-01-21T21:03:01.971Z,76.17
2019-01-21T21:05:30.494Z,76.16
2019-01-21T21:08:00.571Z,76.57
2019-01-21T21:10:29.142Z,76.15
2019-01-21T21:13:01.699Z,76.77
2019-01-21T21:15:33.065Z,76.61
2019-01-21T21:18:01.678Z,77.29
2019-01-21T21:20:32.413Z,76.74
2019-01-21T21:23:03.611Z,77.25
2019-01-21T21:25:31.973Z,77.07
2019-01-21T21:28:00.944Z,76.97
2019-01-21T21:30:31.071Z,76.79
2019-01-21T21:33:00.427Z,76.78
2019-01-21T21:35:29.212Z,76.98
2019-01-21T21:37:58.330Z,77.35
2019-01-21T21:40:26.976Z,77.34
2019-01-21T21:42:59.133Z,78.05
2019-01-21T21:45:27.977Z,77.79
2019-01-21T21:48:03.008Z,77.42
2019-01-21T21:50:32.786Z,77.08
2019-01-21T21:53:01.211Z,76.71
2019-01-21T21:55:29.908Z,76.72
2019-01-21T21:57:58.354Z,76.81
2019-01-21T22:00:29.054Z,76.78
2019-01-21T22:02:57.526Z,77.46
2019-01-21T22:05:26.008Z,77.46
2019-01-21T22:07:54.436Z,77.37
2019-01-21T22:10:26.043Z,77.83
2019-01-21T22:12:54.755Z,78.09
2019-01-21T22:15:25.175Z,78.26
2019-01-21T22:17:53.621Z,78.27
2019-01-21T22:20:24.002Z,78.14
2019-01-21T22:22:52.510Z,77.99
2019-01-21T22:25:21.234Z,77.91
2019-01-21T22:27:49.676Z,77.98
2019-01-21T22:30:21.369Z,78.34
2019-01-21T22:32:50.219Z,78.34
2019-01-21T22:35:18.548Z,77.97
2019-01-21T22:37:47.170Z,77.90
2019-01-21T22:40:17.957Z,77.91
2019-01-21T22:42:46.423Z,77.56
2019-01-21T22:45:16.232Z,77.64
2019-01-21T22:47:44.510Z,77.64
2019-01-21T22:50:16.046Z,77.83
2019-01-21T22:52:44.327Z,77.64
2019-01-21T22:55:15.019Z,77.79
2019-01-21T22:57:43.317Z,77.73
2019-01-21T23:00:14.923Z,77.13
2019-01-21T23:02:43.547Z,77.11
2019-01-21T23:05:11.906Z,77.63
2019-01-21T23:07:40.180Z,77.78
2019-01-21T23:10:09.560Z,78.26
2019-01-21T23:12:37.954Z,78.04
2019-01-21T23:15:07.899Z,77.63
2019-01-21T23:17:36.177Z,77.75
2019-01-21T23:20:07.985Z,77.83
2019-01-21T23:22:36.301Z,78.47
2019-01-21T23:25:05.553Z,78.35
2019-01-21T23:27:33.861Z,78.51
2019-01-21T23:30:02.186Z,78.85
2019-01-21T23:32:33.164Z,78.11
2019-01-21T23:35:02.473Z,77.78
2019-01-21T23:37:31.252Z,77.88
2019-01-21T23:39:59.672Z,77.87
2019-01-21T23:42:28.282Z,77.54
2019-01-21T23:44:56.578Z,77.19
2019-01-21T23:47:24.925Z,77.36
2019-01-21T23:49:53.300Z,77.54
2019-01-21T23:52:21.797Z,77.33
2019-01-21T23:54:50.127Z,77.08
2019-01-21T23:57:18.450Z,77.31
2019-01-21T23:59:46.840Z,77.50
